This is the latest recevied weather packets stored in our database for station/object DB0TGO-13. If no packets are shown the sender has not sent any weather packets the latest 10 day(s).
| Time | Temp. | Humidity | Pressure | Rain* | Wind** | Luminosity | Snow |
|---|---|---|---|---|---|---|---|
| 1777457703 | 10° C | 33% | 1025 hPa | - | - | - | - |
| 1777456802 | 10° C | 33% | 1025 hPa | - | - | - | - |
| 1777455902 | 10° C | 33% | 1025.1 hPa | - | - | - | - |
| 1777455002 | 10° C | 33% | 1025.1 hPa | - | - | - | - |
| 1777454102 | 10.56° C | 34% | 1025.1 hPa | - | - | - | - |
| 1777453203 | 10.56° C | 34% | 1025.1 hPa | - | - | - | - |
| 1777452302 | 10° C | 34% | 1024.9 hPa | - | - | - | - |
| 1777451402 | 10° C | 34% | 1024.9 hPa | - | - | - | - |
| 1777450502 | 8.89° C | 37% | 1024.7 hPa | - | - | - | - |
| 1777449602 | 8.89° C | 37% | 1024.7 hPa | - | - | - | - |
| 1777448702 | 8.33° C | 41% | 1024.5 hPa | - | - | - | - |
| 1777447803 | 8.33° C | 41% | 1024.5 hPa | - | - | - | - |
| 1777446902 | 6.67° C | 46% | 1024.3 hPa | - | - | - | - |
| 1777446002 | 6.67° C | 46% | 1024.3 hPa | - | - | - | - |
| 1777445103 | 6.11° C | 51% | 1024.2 hPa | - | - | - | - |
| 1777444203 | 6.11° C | 51% | 1024.2 hPa | - | - | - | - |
| 1777443302 | 5.56° C | 55% | 1023.8 hPa | - | - | - | - |
| 1777442402 | 5.56° C | 55% | 1023.8 hPa | - | - | - | - |
| 1777441502 | 4.44° C | 57% | 1023.5 hPa | - | - | - | - |
| 1777440603 | 4.44° C | 57% | 1023.5 hPa | - | - | - | - |
| 1777439703 | 2.78° C | 62% | 1023.2 hPa | - | - | - | - |
| 1777438802 | 2.78° C | 62% | 1023.2 hPa | - | - | - | - |
| 1777437902 | 2.22° C | 63% | 1022.9 hPa | - | - | - | - |
| 1777437002 | 2.22° C | 63% | 1022.9 hPa | - | - | - | - |
| 1777436102 | 1.67° C | 65% | 1022.7 hPa | - | - | - | - |
* Rain since midnight (hover to see other rain measurements)
** Current wind speed in m/s (hover to see current wind gust speed)